Hyundai Long Beach — D5EZ2 — position and weather

sailwx.info

Track history (hours):
 
Tides and Currents Weather Stations Pressure Air Temp Water Temp Dewpoint Dewpoint Depression Visibility Wind Speed Wind Dir Waves Ship Positions

Hyundai Long Beach

Last reported at 2018-Jun-20 10:51 UTC. Time now 2018-Jun-20 11:26 UTC.
Position N 34°57' W 126°21'.

Length 293 m; draft 12.3 m.

Type: Cargo ship. MMSI: 636016200.

Date/timePositionNaut miles runAvg speedWind from/ knotsBaromVisibWave heightAir tempDewpointWater temp
2018-Jun-20 10:51N 34°57' W 126°21'820.5
2018-Jun-20 10:27N 35°01' W 126°29'921.1
2018-Jun-20 10:00N 35°06' W 126°39'1121.0
2018-Jun-20 09:30N 35°12' W 126°49'1621.3
2018-Jun-20 08:45N 35°21' W 127°06'721.2
2018-Jun-20 08:24N 35°25' W 127°13'821.2
2018-Jun-20 08:00N 35°29' W 127°22'1121.1
2018-Jun-20 07:30N 35°34' W 127°33'1221.0
2018-Jun-20 06:57N 35°41' W 127°46'3521.0
2018-Jun-20 05:16N 35°59' W 128°23'520.9
2018-Jun-20 05:00N 36°02' W 128°29'1121.1
2018-Jun-20 04:30N 36°07' W 128°40'  
Track history (hours):
 
Tides and Currents Weather Stations Pressure Air Temp Water Temp Dewpoint Dewpoint Depression Visibility Wind Speed Wind Dir Waves Ship Positions

Hyundai Long Beach

Last reported at 2018-Jun-20 10:51 UTC. Time now 2018-Jun-20 11:26 UTC.
Position N 34°57' W 126°21'.

Length 293 m; draft 12.3 m.

Type: Cargo ship. MMSI: 636016200.

Date/timePositionNaut miles runAvg speedWind from/ knotsBaromVisibWave heightAir tempDewpointWater temp
2018-Jun-20 10:51N 34°57' W 126°21'820.5
2018-Jun-20 10:27N 35°01' W 126°29'921.1
2018-Jun-20 10:00N 35°06' W 126°39'1121.0
2018-Jun-20 09:30N 35°12' W 126°49'1621.3
2018-Jun-20 08:45N 35°21' W 127°06'721.2
2018-Jun-20 08:24N 35°25' W 127°13'821.2
2018-Jun-20 08:00N 35°29' W 127°22'1121.1
2018-Jun-20 07:30N 35°34' W 127°33'1221.0
2018-Jun-20 06:57N 35°41' W 127°46'3521.0
2018-Jun-20 05:16N 35°59' W 128°23'520.9
2018-Jun-20 05:00N 36°02' W 128°29'1121.1
2018-Jun-20 04:30N 36°07' W 128°40'  

Dump ship's entire track history